Time;durP1;ratioP1;P1;durP2;ratioP2;P2;SDS_P1;SDS_P2;PMS_P1;PMS_P2;Temp;Humidity;BMP_temperature;BMP_pressure;BME280_temperature;BME280_humidity;BME280_pressure;Samples;Min_cycle;Max_cycle;Signal;HPM_P1;HPM_P2
2019/04/18 09:04:57;;;;;;;16.7;12.9;;;;;;;16.43;45.83691;967.522;;;;
2019/04/18 09:07:29;;;;;;;15;12.7;;;;;;;16.76;44.86328;967.6467;;;;
2019/04/18 09:09:54;;;;;;;14.9;11.7;;;;;;;17.18;44.58887;967.6567;;;;
2019/04/18 09:12:19;;;;;;;18.4;13.5;;;;;;;17.35;42.51465;967.6164;;;;
2019/04/18 09:17:03;;;;;;;18;12.9;;;;;;;17.5;41.85938;967.649;;;;
2019/04/18 09:19:28;;;;;;;16.6;13.5;;;;;;;17.53;41.90918;967.5664;;;;
2019/04/18 09:21:53;;;;;;;17.3;13.3;;;;;;;17.6;42.11523;967.5839;;;;
2019/04/18 09:24:18;;;;;;;18.7;12.9;;;;;;;17.95;41.20801;967.5709;;;;
2019/04/18 09:27:01;;;;;;;16.5;13.9;;;;;;;18.22;43.01074;967.5219;;;;
2019/04/18 09:29:41;;;;;;;23.2;19.1;;;;;;;18.34;39.9375;967.5002;;;;
2019/04/18 09:32:06;;;;;;;16.2;12.3;;;;;;;18.37;40.03418;967.5307;;;;
2019/04/18 09:34:42;;;;;;;15.1;12.8;;;;;;;18.45;39.74707;967.4556;;;;
2019/04/18 09:37:26;;;;;;;14.7;11.8;;;;;;;18.45;37.83887;967.4636;;;;
2019/04/18 09:39:54;;;;;;;14.6;11.6;;;;;;;18.49;37.68848;967.4492;;;;
2019/04/18 09:43:56;;;;;;;15.1;11.8;;;;;;;18.66;37.98633;967.4564;;;;
2019/04/18 09:46:37;;;;;;;21.8;17.5;;;;;;;18.71;36.7998;967.4667;;;;
2019/04/18 09:49:04;;;;;;;13.2;10.8;;;;;;;18.76;37.26367;967.4207;;;;
2019/04/18 09:51:31;;;;;;;13.8;11.5;;;;;;;18.82;37.33984;967.395;;;;
2019/04/18 09:54:14;;;;;;;12.9;10.6;;;;;;;18.88;35.09277;967.3867;;;;
2019/04/18 09:56:56;;;;;;;27.6;22.1;;;;;;;19.07;37.04199;967.3999;;;;
2019/04/18 09:59:35;;;;;;;17.8;12.6;;;;;;;19.25;36.58496;967.4093;;;;
2019/04/18 10:02:02;;;;;;;16.7;11.7;;;;;;;19.26;37.10547;967.4202;;;;
2019/04/18 10:04:44;;;;;;;14;11.4;;;;;;;19.42;38.01563;967.3805;;;;
2019/04/18 10:07:34;;;;;;;15.9;11.6;;;;;;;19.66;35.72168;967.415;;;;
2019/04/18 10:10:18;;;;;;;16.1;11.6;;;;;;;19.88;37.41699;967.4144;;;;
2019/04/18 10:13:06;;;;;;;15.1;11.3;;;;;;;20.02;35.3252;967.4337;;;;
2019/04/18 10:15:33;;;;;;;14.4;11.3;;;;;;;20.06;34.53613;967.4322;;;;
2019/04/18 10:18:06;;;;;;;19.6;11.8;;;;;;;20.23;35.68457;967.3767;;;;
2019/04/18 10:20:44;;;;;;;17.8;11.5;;;;;;;20.46;35.19531;967.3387;;;;
2019/04/18 10:23:08;;;;;;;66.6;49.5;;;;;;;20.66;34.60645;967.3486;;;;
2019/04/18 10:28:52;;;;;;;16.6;11.4;;;;;;;20.89;33.12012;967.2707;;;;
2019/04/18 10:31:16;;;;;;;17.2;11.6;;;;;;;21.07;33.97559;967.3309;;;;
2019/04/18 10:33:42;;;;;;;19.1;12.1;;;;;;;21.13;33.33887;967.2838;;;;
2019/04/18 10:36:25;;;;;;;14.1;10.7;;;;;;;21.35;33.66406;967.2589;;;;
2019/04/18 10:38:50;;;;;;;13.9;10.6;;;;;;;21.54;33.07422;967.2434;;;;
2019/04/18 10:41:18;;;;;;;13.9;10.9;;;;;;;21.62;31.90527;967.2228;;;;
2019/04/18 10:43:50;;;;;;;13.6;10.2;;;;;;;21.76;32.74707;967.193;;;;
2019/04/18 10:46:14;;;;;;;13.7;10.9;;;;;;;21.86;32.61035;967.2561;;;;
2019/04/18 10:48:46;;;;;;;15.2;11.6;;;;;;;21.97;32.74902;967.2397;;;;
2019/04/18 10:51:11;;;;;;;15.9;10.8;;;;;;;22.11;31.09668;967.2141;;;;
2019/04/18 10:53:36;;;;;;;14.4;10.4;;;;;;;22.09;30.08594;967.2475;;;;
2019/04/18 10:56:00;;;;;;;18.9;11.2;;;;;;;22.19;29.62891;967.2232;;;;
2019/04/18 10:58:27;;;;;;;15.3;10.5;;;;;;;22.23;30.27344;967.2174;;;;
2019/04/18 11:00:54;;;;;;;16.3;10.8;;;;;;;22.33;31.48145;967.2009;;;;
2019/04/18 11:03:19;;;;;;;14.6;10.5;;;;;;;22.51;30.74512;967.1686;;;;
2019/04/18 11:05:49;;;;;;;12.6;9.1;;;;;;;22.8;29.72949;967.2114;;;;
2019/04/18 11:08:25;;;;;;;11.8;9.4;;;;;;;22.87;29.28223;967.1392;;;;
2019/04/18 11:10:52;;;;;;;14;11;;;;;;;23.07;28.12891;967.2299;;;;
2019/04/18 11:13:19;;;;;;;12;8.8;;;;;;;23.26;28.7959;967.2178;;;;
2019/04/18 11:15:44;;;;;;;14.4;9.4;;;;;;;23.48;27.26074;967.1475;;;;
2019/04/18 11:18:15;;;;;;;13.3;9.3;;;;;;;23.68;28.50098;967.1122;;;;
2019/04/18 11:20:38;;;;;;;12.3;9.3;;;;;;;23.7;26.9043;967.1478;;;;
2019/04/18 11:23:03;;;;;;;14;9.1;;;;;;;23.7;28.75293;967.1779;;;;
2019/04/18 11:25:28;;;;;;;13.1;8.9;;;;;;;23.87;27.18945;967.0817;;;;
2019/04/18 11:28:07;;;;;;;13.9;9.6;;;;;;;24.03;26.73438;967.0989;;;;
2019/04/18 11:30:31;;;;;;;10.9;9;;;;;;;24.13;26.14355;967.1523;;;;
2019/04/18 11:32:57;;;;;;;12.1;10.4;;;;;;;24.33;26.2627;967.0813;;;;
2019/04/18 11:35:26;;;;;;;10.8;8.3;;;;;;;24.67;25.98438;967.1248;;;;
2019/04/18 11:37:49;;;;;;;11.9;8.1;;;;;;;24.69;27.14355;967.1353;;;;
2019/04/18 11:40:15;;;;;;;10.9;8.3;;;;;;;24.47;25.21973;967.1451;;;;
2019/04/18 11:42:54;;;;;;;11;8.1;;;;;;;24.51;28.17188;967.1639;;;;
2019/04/18 11:45:19;;;;;;;13.6;8.5;;;;;;;24.84;27.4873;967.1939;;;;
2019/04/18 11:47:44;;;;;;;12.9;8.2;;;;;;;25.08;27.04785;967.1184;;;;
2019/04/18 11:50:09;;;;;;;12.4;8.7;;;;;;;25.16;26.13184;967.1017;;;;
2019/04/18 11:52:34;;;;;;;10.7;8.6;;;;;;;25.07;25.58887;967.1066;;;;
2019/04/18 11:55:00;;;;;;;10.2;7.4;;;;;;;24.96;25.78613;967.0994;;;;
2019/04/18 11:57:25;;;;;;;12.4;8.2;;;;;;;24.87;26.52148;967.0658;;;;
2019/04/18 11:59:52;;;;;;;10;7.7;;;;;;;24.91;25.29297;967.0465;;;;
2019/04/18 12:02:17;;;;;;;12.4;7.9;;;;;;;24.7;25.9375;967.0199;;;;
2019/04/18 12:04:50;;;;;;;9.7;7.1;;;;;;;24.76;25.06934;966.9747;;;;
2019/04/18 12:07:10;;;;;;;18.4;7.6;;;;;;;25.11;25.66309;966.9916;;;;
2019/04/18 12:09:35;;;;;;;10.8;7.3;;;;;;;25.39;24.45801;966.9534;;;;
2019/04/18 12:12:08;;;;;;;11.2;7.4;;;;;;;25.74;24.80078;966.9433;;;;
2019/04/18 12:14:33;;;;;;;10.6;7.4;;;;;;;26.02;23.92969;966.9612;;;;
2019/04/18 12:17:09;;;;;;;44.5;36.5;;;;;;;26.21;23.29199;967.0073;;;;
2019/04/18 12:19:34;;;;;;;10.7;7.6;;;;;;;26.28;23.73926;966.9829;;;;
2019/04/18 12:21:59;;;;;;;11.3;7.8;;;;;;;26.3;24.05176;966.9528;;;;
2019/04/18 12:24:24;;;;;;;8.4;7.4;;;;;;;26.04;22.88867;966.8786;;;;
2019/04/18 12:26:57;;;;;;;9.6;6.8;;;;;;;25.95;23.99805;966.9152;;;;
2019/04/18 12:29:36;;;;;;;11.3;7.1;;;;;;;25.82;23.58301;966.8558;;;;
2019/04/18 12:32:02;;;;;;;9;7.3;;;;;;;25.52;23.06445;966.962;;;;
2019/04/18 12:34:32;;;;;;;12.6;7.5;;;;;;;25.19;23.53906;966.8596;;;;
2019/04/18 12:37:02;;;;;;;7.8;5.8;;;;;;;25.18;22.78418;966.967;;;;
2019/04/18 12:39:27;;;;;;;6.3;5.5;;;;;;;25.41;22.87988;966.875;;;;
2019/04/18 12:42:01;;;;;;;6.9;5.1;;;;;;;25.77;22.69434;966.8805;;;;
2019/04/18 12:44:26;;;;;;;8.2;5.9;;;;;;;25.98;22.98047;966.8442;;;;
2019/04/18 12:46:59;;;;;;;8;6;;;;;;;26.22;21.9502;966.796;;;;
2019/04/18 12:49:29;;;;;;;9.5;5.8;;;;;;;26.42;23.36328;966.8845;;;;
2019/04/18 12:51:54;;;;;;;9;6;;;;;;;26.32;21.71484;966.8265;;;;
2019/04/18 12:54:30;;;;;;;11;6.4;;;;;;;26.15;21.86328;966.8722;;;;
2019/04/18 12:56:56;;;;;;;23.2;18.2;;;;;;;26.23;22.2627;966.863;;;;
2019/04/18 12:59:24;;;;;;;7.7;5.7;;;;;;;26.31;22.18262;966.8108;;;;
2019/04/18 13:02:08;;;;;;;6.1;5.5;;;;;;;26.3;22.12207;966.7467;;;;
2019/04/18 13:04:41;;;;;;;7;4.3;;;;;;;26.56;22.25391;966.8029;;;;
2019/04/18 13:07:16;;;;;;;6.6;4.5;;;;;;;26.72;21.74707;966.6478;;;;
2019/04/18 13:09:49;;;;;;;10.7;5.2;;;;;;;26.95;22.0332;966.8014;;;;
2019/04/18 13:12:19;;;;;;;9.3;5.3;;;;;;;26.89;19.67773;966.7709;;;;
2019/04/18 13:16:01;;;;;;;7.9;5;;;;;;;26.75;20.5957;966.7214;;;;
2019/04/18 13:17:07;;;;;;;9.6;5.3;;;;;;;26.18;21.33691;966.7017;;;;
2019/04/18 13:19:29;;;;;;;6.8;5.1;;;;;;;26.04;21.95313;966.7303;;;;
2019/04/18 13:21:54;;;;;;;7.3;5.3;;;;;;;25.89;22.30566;966.7417;;;;
2019/04/18 13:24:20;;;;;;;5.9;5.1;;;;;;;26.08;21.23633;966.6225;;;;
2019/04/18 13:26:46;;;;;;;10.2;4.8;;;;;;;25.91;20.82031;966.6434;;;;
2019/04/18 13:29:11;;;;;;;6.1;4.8;;;;;;;25.37;20.55664;966.7164;;;;
2019/04/18 13:31:36;;;;;;;7.2;5.3;;;;;;;25.13;22.55469;966.7651;;;;
2019/04/18 13:34:01;;;;;;;7.4;5.5;;;;;;;24.66;23.52246;966.7697;;;;
2019/04/18 13:36:28;;;;;;;92.7;74.9;;;;;;;24.47;21.58984;966.687;;;;
2019/04/18 13:38:51;;;;;;;6.7;5.1;;;;;;;24.22;22.93848;966.7232;;;;
2019/04/18 13:41:17;;;;;;;7.6;5.3;;;;;;;23.91;23.61426;966.7473;;;;
2019/04/18 13:43:42;;;;;;;6.2;5.4;;;;;;;23.58;24.06152;966.6313;;;;
2019/04/18 13:46:07;;;;;;;6.4;4.5;;;;;;;23.4;24.55273;966.6724;;;;
2019/04/18 13:48:32;;;;;;;8.9;5.2;;;;;;;23.36;24.18066;966.622;;;;
2019/04/18 13:50:57;;;;;;;9;5.8;;;;;;;23.46;25.30566;966.6976;;;;
2019/04/18 13:53:22;;;;;;;15;6.4;;;;;;;23.61;25.68359;966.7128;;;;
2019/04/18 13:55:48;;;;;;;7.8;5.5;;;;;;;23.92;24.97363;966.7551;;;;
2019/04/18 13:58:13;;;;;;;7.1;5;;;;;;;24.27;24.21777;966.5717;;;;
2019/04/18 14:00:38;;;;;;;5.8;4.7;;;;;;;24.53;23.82617;966.6719;;;;
2019/04/18 14:03:03;;;;;;;4.9;4;;;;;;;24.94;22.05469;966.6839;;;;
2019/04/18 14:05:29;;;;;;;6;4.3;;;;;;;25.32;23.06641;966.6951;;;;
2019/04/18 14:07:54;;;;;;;8.3;4.3;;;;;;;25.72;22.78711;966.6799;;;;
2019/04/18 14:10:19;;;;;;;7.4;3.9;;;;;;;26;22.28711;966.6672;;;;
2019/04/18 14:12:44;;;;;;;8.3;4.1;;;;;;;26.35;21.18848;966.6074;;;;
2019/04/18 14:15:09;;;;;;;6;4.1;;;;;;;26.74;21.47168;966.6492;;;;
2019/04/18 14:17:34;;;;;;;8.8;5.2;;;;;;;26.85;20.9248;966.6201;;;;
2019/04/18 14:19:59;;;;;;;8.7;5.3;;;;;;;26.96;20.88086;966.6595;;;;
2019/04/18 14:22:25;;;;;;;11.7;5.4;;;;;;;27.11;21.24902;966.6803;;;;
2019/04/18 14:24:50;;;;;;;10.5;4.9;;;;;;;27.35;21.06738;966.691;;;;
2019/04/18 14:27:15;;;;;;;11.2;5.6;;;;;;;27.41;21.32324;966.7291;;;;
2019/04/18 14:29:40;;;;;;;10.6;5.3;;;;;;;27.5;21.19531;966.6641;;;;
2019/04/18 14:32:06;;;;;;;8.1;4.7;;;;;;;27.42;21.08398;966.7225;;;;
2019/04/18 14:34:31;;;;;;;11.6;7.2;;;;;;;27.44;21.03613;966.7106;;;;
2019/04/18 14:36:56;;;;;;;39.3;31.7;;;;;;;27.77;20.77441;966.758;;;;
2019/04/18 14:39:21;;;;;;;8.4;7;;;;;;;28.14;20.63574;966.7399;;;;
2019/04/18 14:41:46;;;;;;;12.4;5.6;;;;;;;27.81;20.3916;966.7404;;;;
2019/04/18 14:44:11;;;;;;;11.4;5.9;;;;;;;27.62;20.28711;966.7008;;;;
2019/04/18 14:46:40;;;;;;;6.4;4.6;;;;;;;27.6;20.5625;966.7034;;;;
2019/04/18 14:49:15;;;;;;;9;4.8;;;;;;;27.93;19.72266;966.741;;;;
2019/04/18 14:51:41;;;;;;;9.9;5;;;;;;;28.16;19.9502;966.6908;;;;
2019/04/18 14:54:06;;;;;;;7.3;4.6;;;;;;;28.42;20.46777;966.7142;;;;
2019/04/18 14:56:31;;;;;;;7.2;4.5;;;;;;;28.64;20.01953;966.7004;;;;
2019/04/18 14:59:00;;;;;;;7.3;4.8;;;;;;;28.36;19.41699;966.6872;;;;
2019/04/18 15:01:25;;;;;;;8.5;4.5;;;;;;;28.32;19.72852;966.6281;;;;
2019/04/18 15:03:50;;;;;;;5.7;4.3;;;;;;;27.95;20.15723;966.6804;;;;
2019/04/18 15:06:15;;;;;;;6.7;4.5;;;;;;;27.72;20.21973;966.5949;;;;
2019/04/18 15:08:42;;;;;;;6.7;4.1;;;;;;;27.83;21.09082;966.5574;;;;
2019/04/18 15:11:23;;;;;;;7.9;4.3;;;;;;;27.99;20.01465;966.617;;;;
2019/04/18 15:13:48;;;;;;;8.1;4;;;;;;;28.1;19.94727;966.6414;;;;
2019/04/18 15:16:28;;;;;;;6.8;3.7;;;;;;;28.22;19.95313;966.5881;;;;
2019/04/18 15:18:53;;;;;;;7.4;3.8;;;;;;;28.4;19.32227;966.5905;;;;
2019/04/18 15:21:19;;;;;;;7.9;4.4;;;;;;;28.38;20.32129;966.6212;;;;
2019/04/18 15:23:46;;;;;;;59.5;42.6;;;;;;;28.45;18.97559;966.6047;;;;
2019/04/18 15:26:11;;;;;;;17.1;11.9;;;;;;;28.45;18.90332;966.6311;;;;
2019/04/18 15:28:38;;;;;;;7.2;4.3;;;;;;;28.01;19.38965;966.6223;;;;
2019/04/18 15:31:03;;;;;;;8;4.4;;;;;;;28.1;20.40527;966.6716;;;;
2019/04/18 15:33:28;;;;;;;13.1;4.2;;;;;;;28.07;20.16309;966.6297;;;;
2019/04/18 15:35:53;;;;;;;6.7;3.6;;;;;;;27.77;19.52441;966.604;;;;
2019/04/18 15:38:21;;;;;;;9;3.4;;;;;;;27.21;19.99219;966.6667;;;;
2019/04/18 15:40:57;;;;;;;6;3.2;;;;;;;26.67;20.65234;966.6294;;;;
2019/04/18 15:43:22;;;;;;;6.8;3.7;;;;;;;26.29;20.93457;966.6876;;;;
2019/04/18 15:46:03;;;;;;;8;3.8;;;;;;;26.29;20.85059;966.6219;;;;
2019/04/18 15:48:13;;;;;;;81.8;67;;;;;;;26.15;20.7959;966.6937;;;;
2019/04/18 15:50:38;;;;;;;7.4;4.2;;;;;;;26.28;21.28125;966.6061;;;;
2019/04/18 15:53:03;;;;;;;5.9;4.9;;;;;;;26.52;21.30469;966.5956;;;;
2019/04/18 15:55:28;;;;;;;5.6;3.5;;;;;;;26.79;20.69336;966.67;;;;
2019/04/18 15:57:53;;;;;;;8.2;3.4;;;;;;;26.86;21.08105;966.6319;;;;
2019/04/18 16:00:18;;;;;;;6.9;2.9;;;;;;;27.05;20.06934;966.6474;;;;
2019/04/18 16:02:44;;;;;;;7.4;3;;;;;;;26.92;20.31543;966.6526;;;;
2019/04/18 16:05:09;;;;;;;6;3;;;;;;;26.69;19.8125;966.6359;;;;
2019/04/18 16:07:34;;;;;;;5.4;3;;;;;;;26.44;20.10156;966.6926;;;;
2019/04/18 16:09:59;;;;;;;5.6;2.7;;;;;;;26.25;20.35742;966.6675;;;;
2019/04/18 16:12:24;;;;;;;9.7;3.3;;;;;;;26.17;20.48535;966.6465;;;;
2019/04/18 16:14:49;;;;;;;6.9;2.9;;;;;;;26.17;20.55762;966.6556;;;;
2019/04/18 16:17:16;;;;;;;5.8;3.2;;;;;;;26;21.66406;966.6409;;;;
2019/04/18 16:19:42;;;;;;;5.2;3.1;;;;;;;26.11;21.66895;966.6516;;;;
2019/04/18 16:22:07;;;;;;;4.8;3.2;;;;;;;26.1;20.75781;966.6147;;;;
2019/04/18 16:24:33;;;;;;;5.7;3.1;;;;;;;25.97;21.15918;966.6198;;;;
2019/04/18 16:29:18;;;;;;;5;2.9;;;;;;;25.6;21.5127;966.6779;;;;
2019/04/18 16:31:44;;;;;;;6.5;2.9;;;;;;;25.1;21.78809;966.6967;;;;
2019/04/18 16:34:10;;;;;;;5.1;3;;;;;;;24.82;22.00098;966.6777;;;;
2019/04/18 16:36:35;;;;;;;6.2;2.8;;;;;;;24.5;22.60645;966.6861;;;;
2019/04/18 16:39:00;;;;;;;3.8;2.9;;;;;;;24.09;22.59766;966.7098;;;;
2019/04/18 16:41:26;;;;;;;4.8;3;;;;;;;23.84;23.27637;966.7192;;;;
2019/04/18 16:43:51;;;;;;;5.2;3;;;;;;;23.64;23.38477;966.7132;;;;
2019/04/18 16:46:18;;;;;;;4.2;2.9;;;;;;;23.53;23.84375;966.7486;;;;
2019/04/18 16:48:41;;;;;;;6.4;2.9;;;;;;;23.37;24.1582;966.7072;;;;
2019/04/18 16:51:07;;;;;;;4.6;3;;;;;;;23.3;24.57031;966.7665;;;;
2019/04/18 16:53:32;;;;;;;8.3;3.7;;;;;;;23.27;24.56836;966.7583;;;;
2019/04/18 16:55:57;;;;;;;8.1;4.9;;;;;;;23.29;24.97461;966.7637;;;;
2019/04/18 16:58:22;;;;;;;3.3;2.7;;;;;;;23.06;24.61621;966.7739;;;;
2019/04/18 17:00:47;;;;;;;5.2;2.9;;;;;;;22.96;24.98047;966.7291;;;;
2019/04/18 17:03:13;;;;;;;5.5;2.8;;;;;;;22.97;24.68262;966.8024;;;;
2019/04/18 17:05:38;;;;;;;7.4;3;;;;;;;22.93;25.31152;966.8516;;;;
2019/04/18 17:08:03;;;;;;;3;2.6;;;;;;;22.7;25.06055;966.8441;;;;
2019/04/18 17:10:28;;;;;;;4.5;2.7;;;;;;;22.47;25.95117;966.7794;;;;
2019/04/18 17:12:54;;;;;;;4.8;2.8;;;;;;;22.28;25.60645;966.8881;;;;
2019/04/18 17:15:19;;;;;;;4.1;2.9;;;;;;;22.15;25.25488;966.8301;;;;
2019/04/18 17:17:44;;;;;;;5.4;2.7;;;;;;;22;25.66211;966.8574;;;;
2019/04/18 17:20:12;;;;;;;4.5;2.4;;;;;;;21.84;26.10449;966.8633;;;;
2019/04/18 17:22:36;;;;;;;4.5;2.7;;;;;;;21.78;26.32617;966.9158;;;;
2019/04/18 17:25:01;;;;;;;6.6;3.3;;;;;;;21.73;27.10645;966.955;;;;
2019/04/18 17:27:31;;;;;;;12.7;9.1;;;;;;;21.77;28.8418;966.9051;;;;
2019/04/18 17:29:59;;;;;;;5.8;4.3;;;;;;;21.84;26.92285;966.8724;;;;
2019/04/18 17:32:24;;;;;;;11.5;9.7;;;;;;;21.84;28.14551;966.9545;;;;
2019/04/18 17:34:50;;;;;;;13.4;8.5;;;;;;;21.93;27.73535;966.9939;;;;
2019/04/18 17:37:15;;;;;;;7.3;4.7;;;;;;;21.94;26.72754;966.9825;;;;
2019/04/18 17:39:41;;;;;;;125.3;108.2;;;;;;;21.93;28.08008;966.9626;;;;
2019/04/18 17:42:06;;;;;;;5.6;4.6;;;;;;;21.85;25.98633;967.0316;;;;
2019/04/18 17:44:44;;;;;;;7.4;5.1;;;;;;;21.68;26.47461;967.0494;;;;
2019/04/18 17:47:28;;;;;;;6.6;3.1;;;;;;;21.54;26.7627;967.014;;;;
2019/04/18 17:50:09;;;;;;;8.5;5.1;;;;;;;21.37;29.1123;967.1003;;;;
2019/04/18 17:52:35;;;;;;;7.6;3;;;;;;;21.3;27.47168;967.1057;;;;
2019/04/18 17:55:00;;;;;;;9.2;3.6;;;;;;;21.19;27.63086;967.1398;;;;
2019/04/18 17:57:27;;;;;;;6.9;3.6;;;;;;;21.04;28;967.1412;;;;
2019/04/18 17:59:52;;;;;;;5.3;3.3;;;;;;;20.88;28.32227;967.1861;;;;
2019/04/18 18:02:17;;;;;;;7;3.1;;;;;;;20.64;28.66211;967.161;;;;
2019/04/18 18:04:42;;;;;;;4.8;2.8;;;;;;;20.58;29.04785;967.1828;;;;
2019/04/18 18:07:31;;;;;;;6.3;3.3;;;;;;;20.46;28.95801;967.2267;;;;
2019/04/18 18:09:56;;;;;;;4.1;3.3;;;;;;;20.35;29.60156;967.212;;;;
2019/04/18 18:12:28;;;;;;;6.4;3.6;;;;;;;20.25;29.76074;967.2084;;;;
2019/04/18 18:15:02;;;;;;;6.5;3.5;;;;;;;20.11;29.99902;967.2594;;;;
2019/04/18 18:17:27;;;;;;;5.1;4;;;;;;;20.06;30.24414;967.2361;;;;
2019/04/18 18:19:55;;;;;;;6;3.6;;;;;;;19.97;30.58008;967.2633;;;;
2019/04/18 18:22:20;;;;;;;6.7;4.1;;;;;;;19.87;30.98828;967.3025;;;;
2019/04/18 18:24:45;;;;;;;6.3;4;;;;;;;19.7;31.28223;967.3187;;;;
2019/04/18 18:27:14;;;;;;;5.9;3.5;;;;;;;19.6;31.42871;967.325;;;;
2019/04/18 18:29:38;;;;;;;4;3.4;;;;;;;19.58;31.65234;967.2842;;;;
2019/04/18 18:32:03;;;;;;;5.4;3.6;;;;;;;19.45;31.99805;967.3322;;;;
2019/04/18 18:34:30;;;;;;;4.4;3.6;;;;;;;19.34;32.52051;967.3693;;;;
2019/04/18 18:37:06;;;;;;;7;4.1;;;;;;;19.29;32.46973;967.3208;;;;
2019/04/18 18:39:21;;;;;;;5.8;4;;;;;;;19.2;32.76953;967.3558;;;;
2019/04/18 18:41:47;;;;;;;4.8;3.7;;;;;;;19.15;33.00195;967.3753;;;;
2019/04/18 18:44:11;;;;;;;4.8;3.6;;;;;;;19.09;33.1748;967.4007;;;;
2019/04/18 18:46:36;;;;;;;5.3;3.6;;;;;;;19.09;33.39844;967.3798;;;;
2019/04/18 18:49:01;;;;;;;8.9;3.8;;;;;;;19.01;33.39258;967.4595;;;;
2019/04/18 18:51:27;;;;;;;8.7;4.2;;;;;;;18.94;33.56445;967.5078;;;;
2019/04/18 18:53:52;;;;;;;8.6;4.2;;;;;;;18.85;33.81641;967.4906;;;;
2019/04/18 18:56:18;;;;;;;5.6;3.6;;;;;;;18.75;34.11621;967.5214;;;;
2019/04/18 18:58:42;;;;;;;7.6;5.2;;;;;;;18.77;34.14063;967.5932;;;;
2019/04/18 19:01:08;;;;;;;7.4;4.6;;;;;;;18.71;34.41895;967.5835;;;;
2019/04/18 19:03:33;;;;;;;7.1;4;;;;;;;18.67;34.55664;967.6279;;;;
2019/04/18 19:06:00;;;;;;;7;4.3;;;;;;;18.56;35.01953;967.6772;;;;
2019/04/18 19:08:25;;;;;;;6.2;4.2;;;;;;;18.49;35.16699;967.7134;;;;
2019/04/18 19:10:50;;;;;;;6.8;4.2;;;;;;;18.43;35.26855;967.6691;;;;
2019/04/18 19:13:20;;;;;;;6;3.9;;;;;;;18.41;35.39648;967.7549;;;;
2019/04/18 19:15:45;;;;;;;5.1;3.6;;;;;;;18.27;35.69141;967.7178;;;;
2019/04/18 19:18:11;;;;;;;6.2;3.9;;;;;;;18.24;35.9834;967.7776;;;;
2019/04/18 19:20:36;;;;;;;6;4;;;;;;;18.19;36.0498;967.7581;;;;
2019/04/18 19:23:01;;;;;;;6;4.2;;;;;;;18.16;36.29492;967.7672;;;;
2019/04/18 19:25:26;;;;;;;5.3;4.4;;;;;;;18.16;36.41309;967.8231;;;;
2019/04/18 19:27:52;;;;;;;7.6;4.5;;;;;;;18.03;36.81348;967.7927;;;;
2019/04/18 19:30:17;;;;;;;8.9;4.6;;;;;;;18;36.96387;967.8406;;;;
2019/04/18 19:32:42;;;;;;;7.8;5.1;;;;;;;17.9;37.12012;967.7245;;;;
2019/04/18 19:35:12;;;;;;;7.9;4.8;;;;;;;17.81;37.40723;967.8744;;;;
2019/04/18 19:37:37;;;;;;;6.3;4.5;;;;;;;17.78;37.60352;967.8794;;;;
2019/04/18 19:40:12;;;;;;;11.3;5.1;;;;;;;17.67;37.93652;967.8239;;;;
2019/04/18 19:42:46;;;;;;;7.2;4.9;;;;;;;17.67;37.95801;967.8638;;;;
2019/04/18 19:45:11;;;;;;;6.4;4.9;;;;;;;17.66;38.11133;967.8777;;;;
2019/04/18 19:47:36;;;;;;;7;4.8;;;;;;;17.62;38.35547;967.8478;;;;
2019/04/18 19:50:01;;;;;;;9.1;4.9;;;;;;;17.6;38.45898;967.8678;;;;
2019/04/18 19:52:27;;;;;;;5.6;4.7;;;;;;;17.55;38.70117;967.8309;;;;
2019/04/18 19:54:52;;;;;;;6.8;5.1;;;;;;;17.43;38.83203;967.8351;;;;
2019/04/18 19:57:17;;;;;;;7;4.7;;;;;;;17.39;39.00488;967.8225;;;;
2019/04/18 19:59:42;;;;;;;8.2;5.1;;;;;;;17.39;38.85156;967.8444;;;;
2019/04/18 20:02:07;;;;;;;6.1;4.7;;;;;;;17.28;39.12402;967.8765;;;;
2019/04/18 20:04:32;;;;;;;7.8;5.2;;;;;;;17.26;39.18164;967.9302;;;;
2019/04/18 20:07:04;;;;;;;6.3;5.1;;;;;;;17.23;39.35352;967.9352;;;;
2019/04/18 20:09:30;;;;;;;8.2;4.9;;;;;;;17.18;39.49219;967.9453;;;;
2019/04/18 20:11:56;;;;;;;93.9;80.6;;;;;;;17.1;40.05957;967.9263;;;;
2019/04/18 20:14:21;;;;;;;86.4;75.4;;;;;;;17.07;40.06836;967.9216;;;;
2019/04/18 20:17:03;;;;;;;10.9;5.8;;;;;;;17.03;39.94727;967.9264;;;;
2019/04/18 20:19:27;;;;;;;6.4;5.1;;;;;;;16.97;40.01172;967.9302;;;;
2019/04/18 20:21:52;;;;;;;10.1;5.5;;;;;;;16.88;40.12207;967.9244;;;;
2019/04/18 20:24:17;;;;;;;7.7;5.5;;;;;;;16.75;40.3916;967.9242;;;;
2019/04/18 20:26:52;;;;;;;7;5.1;;;;;;;16.68;40.4209;967.9849;;;;
2019/04/18 20:29:09;;;;;;;7.8;5.2;;;;;;;16.61;40.82422;967.9678;;;;
2019/04/18 20:31:34;;;;;;;8.1;5.1;;;;;;;16.55;40.83105;968.0222;;;;
2019/04/18 20:33:59;;;;;;;6.2;5;;;;;;;16.47;41.03418;968.0291;;;;
2019/04/18 20:36:24;;;;;;;7.4;5.3;;;;;;;16.44;41.125;968.0458;;;;
2019/04/18 20:38:50;;;;;;;6.3;5.3;;;;;;;16.37;41.3291;968.0419;;;;
2019/04/18 20:41:15;;;;;;;6.5;4.9;;;;;;;16.3;41.37012;968.0375;;;;
2019/04/18 20:43:40;;;;;;;7.7;4.9;;;;;;;16.26;41.35449;968.0087;;;;
2019/04/18 20:46:05;;;;;;;5.9;5;;;;;;;16.22;41.66602;968.0224;;;;
2019/04/18 20:48:30;;;;;;;7.2;4.8;;;;;;;16.16;41.57813;968.03;;;;
2019/04/18 20:50:56;;;;;;;8.3;5.1;;;;;;;16.2;41.71191;968.0939;;;;
2019/04/18 20:53:21;;;;;;;6.4;5;;;;;;;16.22;41.73633;968.0831;;;;
2019/04/18 20:55:46;;;;;;;6.6;5.1;;;;;;;16.21;41.77148;968.092;;;;
2019/04/18 20:58:12;;;;;;;8.3;5.4;;;;;;;16.2;41.67676;968.0939;;;;
2019/04/18 21:00:38;;;;;;;7.6;5.6;;;;;;;16.19;41.62891;968.1077;;;;
2019/04/18 21:03:10;;;;;;;78.6;57.1;;;;;;;16.18;41.76855;968.1305;;;;
2019/04/18 21:05:35;;;;;;;58.9;46.7;;;;;;;16.06;42.17969;968.1887;;;;
2019/04/18 21:08:17;;;;;;;7.6;5.4;;;;;;;16.09;41.60742;968.1769;;;;
2019/04/18 21:10:42;;;;;;;6.2;5.2;;;;;;;16.03;41.54395;968.171;;;;
2019/04/18 21:13:08;;;;;;;8.2;5.3;;;;;;;16;41.66895;968.1925;;;;
2019/04/18 21:15:33;;;;;;;7.4;5.6;;;;;;;15.93;41.83887;968.2269;;;;
2019/04/18 21:17:58;;;;;;;7;5.1;;;;;;;15.91;41.69629;968.2081;;;;
2019/04/18 21:20:23;;;;;;;8.6;5.1;;;;;;;15.83;41.74609;968.283;;;;
2019/04/18 21:22:48;;;;;;;6.1;5;;;;;;;15.81;41.66309;968.3067;;;;
2019/04/18 21:25:13;;;;;;;6.6;4.8;;;;;;;15.78;41.75391;968.3197;;;;
2019/04/18 21:27:42;;;;;;;6.4;4.7;;;;;;;15.73;41.83105;968.3551;;;;
2019/04/18 21:30:08;;;;;;;7.6;4.7;;;;;;;15.66;41.98828;968.4114;;;;
2019/04/18 21:32:32;;;;;;;6.9;5;;;;;;;15.54;42.24609;968.3745;;;;
2019/04/18 21:34:58;;;;;;;5.3;4.6;;;;;;;15.44;42.21289;968.3958;;;;
2019/04/18 21:37:23;;;;;;;6.1;5.1;;;;;;;15.39;42.45313;968.4102;;;;
2019/04/18 21:39:55;;;;;;;6.1;4.9;;;;;;;15.3;42.52734;968.4514;;;;
2019/04/18 21:42:19;;;;;;;9.3;5;;;;;;;15.27;42.57031;968.4559;;;;
2019/04/18 21:44:44;;;;;;;5.1;4.6;;;;;;;15.31;42.73828;968.5109;;;;
2019/04/18 21:47:10;;;;;;;5.9;5;;;;;;;15.34;42.72949;968.4673;;;;
2019/04/18 21:49:35;;;;;;;7.1;4.9;;;;;;;15.32;42.8916;968.522;;;;
2019/04/18 21:52:00;;;;;;;9.1;5.1;;;;;;;15.35;42.56641;968.5914;;;;
2019/04/18 21:54:25;;;;;;;8.6;5.3;;;;;;;15.27;42.65234;968.5364;;;;
2019/04/18 21:56:50;;;;;;;5.7;4.9;;;;;;;15.23;42.63672;968.533;;;;
2019/04/18 21:59:15;;;;;;;6.7;4.8;;;;;;;15.22;42.75293;968.5906;;;;
2019/04/18 22:01:40;;;;;;;5.6;4.6;;;;;;;15.21;42.70605;968.5995;;;;
2019/04/18 22:04:06;;;;;;;7.1;4.9;;;;;;;15.15;42.99219;968.6197;;;;
2019/04/18 22:06:31;;;;;;;5.5;4.6;;;;;;;15.16;42.85254;968.6358;;;;
2019/04/18 22:08:57;;;;;;;7.6;4.7;;;;;;;15.12;42.80176;968.6283;;;;
2019/04/18 22:11:23;;;;;;;5.7;4.8;;;;;;;15.11;42.68359;968.6642;;;;
2019/04/18 22:13:48;;;;;;;5.5;4.4;;;;;;;15.08;42.78516;968.7581;;;;
2019/04/18 22:16:14;;;;;;;5.8;4.4;;;;;;;14.98;42.81055;968.7791;;;;
2019/04/18 22:18:42;;;;;;;7;4.6;;;;;;;14.91;43.27246;968.7783;;;;
2019/04/18 22:21:09;;;;;;;6.1;4.7;;;;;;;14.93;43.11035;968.8192;;;;
2019/04/18 22:23:34;;;;;;;7.1;4.9;;;;;;;14.93;43.18066;968.8578;;;;
2019/04/18 22:25:59;;;;;;;6.8;4.9;;;;;;;14.89;43.25781;968.9059;;;;
2019/04/18 22:30:24;;;;;;;7;5;;;;;;;14.78;43.63281;968.9019;;;;
2019/04/18 22:35:16;;;;;;;7;5.7;;;;;;;14.72;43.87305;968.9559;;;;
2019/04/18 22:37:41;;;;;;;6.8;5;;;;;;;14.66;44.03027;968.9066;;;;
2019/04/18 22:42:28;;;;;;;7;4.7;;;;;;;14.41;44.86719;968.8901;;;;
2019/04/18 22:44:53;;;;;;;6.5;4.9;;;;;;;14.31;44.89258;968.8973;;;;
2019/04/18 22:47:20;;;;;;;8.6;5.2;;;;;;;14.09;45.45313;968.9363;;;;
2019/04/18 22:51:59;;;;;;;6;4.6;;;;;;;14.03;45.3877;968.9434;;;;
2019/04/18 22:54:25;;;;;;;6.2;4.8;;;;;;;13.93;45.72852;968.8859;;;;
2019/04/18 22:56:50;;;;;;;6.7;4.7;;;;;;;13.88;45.28027;968.9603;;;;
2019/04/18 22:59:15;;;;;;;6.6;4.7;;;;;;;13.98;45.17383;969.0051;;;;
2019/04/18 23:01:40;;;;;;;5.5;4.9;;;;;;;14.03;45.13281;968.9346;;;;
2019/04/18 23:04:05;;;;;;;7.8;4.8;;;;;;;14.06;44.92578;968.948;;;;
2019/04/18 23:06:33;;;;;;;5.3;4.7;;;;;;;14.1;44.7666;968.8959;;;;
2019/04/18 23:08:59;;;;;;;7.2;4.8;;;;;;;14.06;44.72754;968.8965;;;;
2019/04/18 23:11:24;;;;;;;6.3;4.8;;;;;;;14.07;44.84473;968.9728;;;;
2019/04/18 23:13:50;;;;;;;7.9;4.8;;;;;;;14.09;44.80078;968.9828;;;;
2019/04/18 23:16:17;;;;;;;5.2;4.7;;;;;;;14.03;44.79492;968.9169;;;;
2019/04/18 23:18:40;;;;;;;6.4;5;;;;;;;14.02;44.92188;968.9871;;;;
2019/04/18 23:21:05;;;;;;;6.7;4.8;;;;;;;13.98;45.05762;968.9744;;;;
2019/04/18 23:23:31;;;;;;;6.7;4.7;;;;;;;14.01;45.1543;968.967;;;;
2019/04/18 23:25:56;;;;;;;6.6;4.7;;;;;;;13.98;45.15039;968.9061;;;;
2019/04/18 23:28:32;;;;;;;7;4.8;;;;;;;13.97;45.05566;968.9495;;;;
2019/04/18 23:30:54;;;;;;;5.9;4.5;;;;;;;13.88;44.93066;968.9514;;;;
2019/04/18 23:33:19;;;;;;;5;4.4;;;;;;;13.8;45.1084;968.9395;;;;
2019/04/18 23:35:44;;;;;;;5.3;4.7;;;;;;;13.83;45.13477;968.9755;;;;
2019/04/18 23:38:09;;;;;;;6.9;4.9;;;;;;;13.8;45.15527;968.9138;;;;
2019/04/18 23:40:35;;;;;;;5.7;4.9;;;;;;;13.77;45.2334;968.8954;;;;
2019/04/18 23:43:00;;;;;;;6.6;4.7;;;;;;;13.63;45.61523;968.929;;;;